Time;durP1;ratioP1;P1;durP2;ratioP2;P2;SDS_P1;SDS_P2;PMS_P1;PMS_P2;Temp;Humidity;BMP_temperature;BMP_pressure;BME280_temperature;BME280_humidity;BME280_pressure;Samples;Min_cycle;Max_cycle;Signal;HPM_P1;HPM_P2
2022/09/07 00:00:34;;;;;;;1.10;1.10;;;21.50;99.90;;;;;;5041954;28;20314;-61
2022/09/07 00:03:03;;;;;;;1.02;0.90;;;21.50;99.90;;;;;;5042916;28;20207;-61
2022/09/07 00:05:30;;;;;;;0.95;0.95;;;21.50;99.90;;;;;;5042209;28;20342;-61
2022/09/07 00:07:58;;;;;;;1.40;1.30;;;21.40;99.90;;;;;;5039428;28;20283;-62
2022/09/07 00:10:26;;;;;;;1.00;1.00;;;21.40;99.90;;;;;;5047957;28;20317;-61
2022/09/07 00:12:53;;;;;;;1.23;1.13;;;21.40;99.90;;;;;;5039953;28;20225;-61
2022/09/07 00:15:20;;;;;;;1.07;1.07;;;21.40;99.90;;;;;;5039415;28;20295;-61
2022/09/07 00:17:47;;;;;;;1.27;1.20;;;21.40;99.90;;;;;;5033206;28;20235;-61
2022/09/07 00:20:15;;;;;;;1.00;1.00;;;21.40;99.90;;;;;;5039378;28;20636;-61
2022/09/07 00:22:42;;;;;;;1.00;1.00;;;21.50;99.90;;;;;;5046739;28;20300;-61
2022/09/07 00:25:09;;;;;;;1.23;1.17;;;21.50;99.90;;;;;;5039373;28;20288;-61
2022/09/07 00:27:36;;;;;;;0.88;0.88;;;21.50;99.90;;;;;;5047427;28;20722;-61
2022/09/07 00:30:04;;;;;;;1.10;1.10;;;21.50;99.90;;;;;;5039413;28;20288;-61
2022/09/07 00:32:30;;;;;;;0.87;0.87;;;21.50;99.90;;;;;;5040592;28;20702;-61
2022/09/07 00:34:57;;;;;;;1.03;1.03;;;21.50;99.90;;;;;;5044442;28;20634;-62
2022/09/07 00:37:26;;;;;;;0.90;0.90;;;21.50;99.90;;;;;;5039441;28;20246;-60
2022/09/07 00:39:53;;;;;;;0.90;0.90;;;21.50;99.90;;;;;;5046390;28;20287;-61
2022/09/07 00:42:20;;;;;;;1.35;1.25;;;21.50;99.90;;;;;;5039302;28;20299;-62
2022/09/07 00:45:01;;;;;;;1.08;0.95;;;21.40;99.90;;;;;;5043040;28;20298;-62
2022/09/07 00:47:33;;;;;;;1.03;1.00;;;21.30;99.90;;;;;;5039856;28;20263;-61
2022/09/07 00:50:04;;;;;;;1.10;1.10;;;21.20;99.90;;;;;;5042759;28;20257;-61
2022/09/07 00:52:35;;;;;;;1.37;0.97;;;21.20;99.90;;;;;;5036969;28;20303;-61
2022/09/07 00:55:08;;;;;;;1.20;1.10;;;21.10;99.90;;;;;;5043127;28;20242;-61
2022/09/07 00:57:36;;;;;;;0.97;0.97;;;21.10;99.90;;;;;;5041559;28;20233;-61
2022/09/07 01:00:05;;;;;;;1.08;0.98;;;21.10;99.90;;;;;;5042523;28;20266;-60
2022/09/07 01:02:32;;;;;;;1.17;1.07;;;21.10;99.90;;;;;;5040046;28;20251;-61
2022/09/07 01:05:05;;;;;;;1.23;1.13;;;21.10;99.90;;;;;;5042762;28;20240;-61
2022/09/07 01:07:34;;;;;;;1.17;1.08;;;21.10;99.90;;;;;;5041022;28;20208;-61
2022/09/07 01:10:02;;;;;;;1.10;1.03;;;21.20;99.90;;;;;;5044518;28;20236;-61
2022/09/07 01:12:30;;;;;;;1.23;1.10;;;21.20;99.90;;;;;;5041202;28;20252;-61
2022/09/07 01:14:57;;;;;;;0.90;0.90;;;21.20;99.90;;;;;;5040516;28;20652;-61
2022/09/07 01:17:30;;;;;;;0.98;0.98;;;21.20;99.90;;;;;;5046774;28;20246;-62
2022/09/07 01:20:30;;;;;;;1.10;1.10;;;21.10;99.90;;;;;;5040219;28;20233;-62
2022/09/07 01:23:32;;;;;;;1.10;1.10;;;21.10;99.90;;;;;;5036697;28;20204;-62
2022/09/07 01:26:36;;;;;;;1.30;1.20;;;21.20;99.90;;;;;;5032980;28;20243;-61
2022/09/07 01:29:12;;;;;;;1.15;1.05;;;21.30;99.90;;;;;;5041943;28;20207;-61
2022/09/07 01:31:46;;;;;;;1.20;1.10;;;21.20;99.90;;;;;;5046358;28;20255;-62
2022/09/07 01:34:20;;;;;;;1.10;1.00;;;21.30;99.90;;;;;;5046485;28;20239;-61
2022/09/07 01:36:55;;;;;;;2.13;1.10;;;21.20;99.90;;;;;;5048770;28;20210;-62
2022/09/07 01:39:28;;;;;;;0.90;0.90;;;21.20;99.90;;;;;;5071044;28;20183;-62
2022/09/07 01:42:02;;;;;;;0.90;0.90;;;21.20;99.90;;;;;;5055040;28;20631;-62
2022/09/07 01:44:34;;;;;;;1.00;1.00;;;21.20;99.90;;;;;;5048400;28;20251;-61
2022/09/07 01:47:05;;;;;;;0.97;0.93;;;21.30;99.90;;;;;;5046423;28;20694;-63
2022/09/07 01:49:38;;;;;;;0.90;0.90;;;21.30;99.90;;;;;;5042429;28;20306;-62
2022/09/07 01:52:09;;;;;;;0.87;0.87;;;21.30;99.90;;;;;;5042280;28;20323;-61
2022/09/07 01:54:41;;;;;;;0.90;0.90;;;21.40;99.90;;;;;;5044543;28;20247;-62
2022/09/07 01:57:13;;;;;;;1.00;1.00;;;21.50;99.90;;;;;;5046112;28;20282;-62
2022/09/07 01:59:45;;;;;;;0.80;0.80;;;21.50;99.90;;;;;;5044497;28;20209;-62
2022/09/07 02:02:16;;;;;;;0.90;0.90;;;21.70;99.90;;;;;;5044074;28;20315;-62
2022/09/07 02:04:48;;;;;;;0.93;0.93;;;21.70;99.90;;;;;;5045139;28;20567;-62
2022/09/07 02:07:21;;;;;;;1.20;1.10;;;21.70;99.90;;;;;;5044740;28;20286;-62
2022/09/07 02:09:52;;;;;;;0.80;0.80;;;21.70;99.90;;;;;;5043137;28;20224;-62
2022/09/07 02:12:24;;;;;;;1.20;1.10;;;21.70;99.90;;;;;;5039116;28;20312;-62
2022/09/07 02:14:55;;;;;;;0.80;0.80;;;21.70;99.90;;;;;;5034263;28;20258;-63
2022/09/07 02:17:29;;;;;;;1.27;0.90;;;21.70;99.90;;;;;;5041769;28;20294;-62
2022/09/07 02:20:03;;;;;;;0.65;0.65;;;21.70;99.90;;;;;;5046462;28;20212;-61
2022/09/07 02:22:33;;;;;;;1.10;1.00;;;21.70;99.90;;;;;;5043335;28;20915;-63
2022/09/07 02:25:03;;;;;;;0.80;0.80;;;21.70;99.90;;;;;;5045125;28;20632;-62
2022/09/07 02:27:35;;;;;;;1.08;1.08;;;21.70;99.90;;;;;;5042279;28;20240;-62
2022/09/07 02:30:04;;;;;;;1.10;1.00;;;21.70;99.90;;;;;;5045003;28;20242;-62
2022/09/07 02:32:31;;;;;;;0.97;0.93;;;21.70;99.90;;;;;;5043055;28;20311;-62
2022/09/07 02:34:58;;;;;;;0.90;0.90;;;21.70;99.90;;;;;;5046198;28;20196;-61
2022/09/07 02:37:28;;;;;;;0.93;0.93;;;21.60;99.90;;;;;;5044476;28;20235;-62
2022/09/07 02:39:56;;;;;;;1.00;1.00;;;21.50;99.90;;;;;;5044969;28;20196;-62
2022/09/07 02:42:23;;;;;;;1.10;1.00;;;21.40;99.90;;;;;;5045091;28;20246;-62
2022/09/07 02:44:51;;;;;;;1.23;1.13;;;21.30;99.90;;;;;;5043598;28;20237;-62
2022/09/07 02:47:29;;;;;;;1.20;1.10;;;21.30;99.90;;;;;;5045268;28;20294;-62
2022/09/07 02:50:17;;;;;;;1.00;1.00;;;21.20;99.90;;;;;;5037950;28;20214;-63
2022/09/07 02:52:52;;;;;;;1.00;1.00;;;21.10;99.90;;;;;;5034912;28;20668;-62
2022/09/07 02:55:30;;;;;;;1.00;1.00;;;21.10;99.90;;;;;;5048388;28;20238;-63
2022/09/07 02:58:06;;;;;;;1.10;1.00;;;21.10;99.90;;;;;;5032744;28;20258;-62
2022/09/07 03:00:40;;;;;;;1.00;1.00;;;21.00;99.90;;;;;;5041267;28;20248;-62
2022/09/07 03:03:17;;;;;;;1.30;1.20;;;21.00;99.90;;;;;;5044856;28;20624;-62
2022/09/07 03:05:48;;;;;;;1.00;1.00;;;20.90;99.90;;;;;;5037280;28;20235;-61
2022/09/07 03:08:19;;;;;;;1.00;1.00;;;20.90;99.90;;;;;;5043476;28;20288;-62
2022/09/07 03:10:47;;;;;;;1.00;1.00;;;20.90;99.90;;;;;;5044288;28;20310;-62
2022/09/07 03:13:25;;;;;;;0.80;0.80;;;20.90;99.90;;;;;;5044846;28;20264;-62
2022/09/07 03:15:52;;;;;;;1.17;1.10;;;20.90;99.90;;;;;;5032579;28;20291;-63
2022/09/07 03:18:21;;;;;;;0.90;0.90;;;20.90;99.90;;;;;;5041997;28;20667;-63
2022/09/07 03:20:48;;;;;;;1.00;1.00;;;21.00;99.90;;;;;;5040146;28;20216;-62
2022/09/07 03:23:15;;;;;;;1.07;1.03;;;20.90;99.90;;;;;;5043792;28;20250;-62
2022/09/07 03:25:42;;;;;;;0.77;0.77;;;21.00;99.90;;;;;;5043788;28;20722;-63
2022/09/07 03:28:09;;;;;;;0.80;0.80;;;21.00;99.90;;;;;;5046359;28;20231;-62
2022/09/07 03:30:36;;;;;;;1.00;1.00;;;21.00;99.90;;;;;;5043943;28;20255;-62
2022/09/07 03:33:03;;;;;;;1.00;1.00;;;21.00;99.90;;;;;;5038339;28;20747;-62
2022/09/07 03:35:31;;;;;;;1.30;1.20;;;21.00;99.90;;;;;;5041043;28;20232;-62
2022/09/07 03:37:58;;;;;;;0.90;0.90;;;20.90;99.90;;;;;;5043526;28;20242;-62
2022/09/07 03:40:25;;;;;;;2.13;1.07;;;20.90;99.90;;;;;;5043220;28;20285;-62
2022/09/07 03:42:52;;;;;;;0.97;0.97;;;20.80;99.90;;;;;;5043875;28;20235;-63
2022/09/07 03:45:19;;;;;;;1.00;1.00;;;20.70;99.90;;;;;;5043687;28;20265;-62
2022/09/07 03:47:46;;;;;;;1.07;1.07;;;20.70;99.90;;;;;;5041135;28;20196;-63
2022/09/07 03:50:13;;;;;;;1.27;1.17;;;20.70;99.90;;;;;;5043125;28;20326;-62
2022/09/07 03:52:41;;;;;;;0.93;0.93;;;20.70;99.90;;;;;;5042042;28;20259;-62
2022/09/07 03:55:09;;;;;;;1.13;1.03;;;20.70;99.90;;;;;;5043722;28;20569;-64
2022/09/07 03:57:36;;;;;;;0.90;0.90;;;20.70;99.90;;;;;;5042354;28;20287;-62
2022/09/07 04:00:04;;;;;;;1.30;1.20;;;20.70;99.90;;;;;;5043530;28;20258;-62
2022/09/07 04:02:31;;;;;;;1.00;1.00;;;20.70;99.90;;;;;;5039100;28;20208;-63
2022/09/07 04:04:58;;;;;;;0.70;0.70;;;20.70;99.90;;;;;;5043723;28;20282;-63
2022/09/07 04:07:25;;;;;;;1.00;1.00;;;20.70;99.90;;;;;;5042981;28;20716;-62
2022/09/07 04:09:53;;;;;;;1.20;1.10;;;20.70;99.90;;;;;;5043674;28;20230;-61
2022/09/07 04:12:20;;;;;;;1.00;0.90;;;20.80;99.90;;;;;;5043542;28;20313;-62
2022/09/07 04:14:47;;;;;;;1.17;1.07;;;20.70;99.90;;;;;;5042813;28;20232;-62
2022/09/07 04:17:14;;;;;;;1.13;1.13;;;20.80;99.90;;;;;;5045052;28;20650;-62
2022/09/07 04:19:41;;;;;;;0.95;0.95;;;20.80;99.90;;;;;;5040902;28;20247;-62
2022/09/07 04:22:08;;;;;;;0.90;0.90;;;20.80;99.90;;;;;;5045107;28;20586;-62
2022/09/07 04:24:35;;;;;;;1.00;1.00;;;20.80;99.90;;;;;;5041691;28;20239;-63
2022/09/07 04:27:03;;;;;;;1.00;1.00;;;20.70;99.90;;;;;;5044921;28;20261;-63
2022/09/07 04:29:30;;;;;;;1.00;1.00;;;20.70;99.90;;;;;;5042141;28;20240;-62
2022/09/07 04:31:57;;;;;;;1.07;1.00;;;20.70;99.90;;;;;;5039600;28;20275;-63
2022/09/07 04:34:24;;;;;;;0.90;0.90;;;20.70;99.90;;;;;;5050492;28;20250;-62
2022/09/07 04:36:52;;;;;;;1.10;1.10;;;20.70;99.90;;;;;;5040630;28;20292;-62
2022/09/07 04:39:19;;;;;;;0.90;0.90;;;20.70;99.90;;;;;;5046936;28;20200;-63
2022/09/07 04:41:46;;;;;;;0.90;0.90;;;20.70;99.90;;;;;;5039690;28;20221;-62
2022/09/07 04:44:14;;;;;;;1.20;1.10;;;20.70;99.90;;;;;;5046408;28;20244;-61
2022/09/07 04:46:41;;;;;;;0.93;0.93;;;20.80;99.90;;;;;;5040194;28;20291;-62
2022/09/07 04:49:10;;;;;;;0.90;0.90;;;20.80;99.90;;;;;;5040018;28;20205;-63
2022/09/07 04:51:39;;;;;;;0.97;0.97;;;20.80;99.90;;;;;;5046137;28;20601;-63
2022/09/07 04:54:06;;;;;;;0.90;0.90;;;20.90;99.90;;;;;;5039322;28;20224;-61
2022/09/07 04:56:33;;;;;;;1.20;1.10;;;20.90;99.90;;;;;;5046658;28;20721;-62
2022/09/07 04:59:01;;;;;;;1.27;1.10;;;20.90;99.90;;;;;;5040061;28;20629;-63
2022/09/07 05:01:30;;;;;;;0.97;0.97;;;20.90;99.90;;;;;;5054593;28;20224;-63
2022/09/07 05:03:59;;;;;;;1.00;1.00;;;20.80;99.90;;;;;;5043537;28;20311;-61
2022/09/07 05:06:26;;;;;;;1.10;1.10;;;20.80;99.90;;;;;;5043434;28;20283;-61
2022/09/07 05:08:54;;;;;;;1.37;1.30;;;20.80;99.90;;;;;;5046481;28;20200;-61
2022/09/07 05:11:23;;;;;;;0.73;0.73;;;20.80;99.90;;;;;;5046098;28;20315;-61
2022/09/07 05:13:50;;;;;;;1.03;0.97;;;20.80;99.90;;;;;;5033710;28;20260;-62
2022/09/07 05:16:20;;;;;;;0.90;0.90;;;20.80;99.90;;;;;;5043505;28;20670;-63
2022/09/07 05:18:51;;;;;;;0.93;0.93;;;20.80;99.90;;;;;;5033116;28;20231;-62
2022/09/07 05:21:20;;;;;;;1.73;1.10;;;20.80;99.90;;;;;;5045131;28;20780;-61
2022/09/07 05:23:50;;;;;;;1.08;1.05;;;20.80;99.90;;;;;;5057786;22;20200;-65
2022/09/07 05:26:18;;;;;;;1.35;1.10;;;20.80;99.90;;;;;;5036834;28;20283;-67
2022/09/07 05:28:45;;;;;;;1.38;1.20;;;20.70;99.90;;;;;;5042459;28;20243;-68
2022/09/07 05:31:15;;;;;;;1.00;1.00;;;20.80;99.90;;;;;;5048277;28;20239;-68
2022/09/07 05:33:46;;;;;;;1.13;1.07;;;20.80;99.90;;;;;;5047349;28;20266;-68
2022/09/07 05:36:14;;;;;;;1.00;1.00;;;20.90;99.90;;;;;;5043757;28;20196;-66
2022/09/07 05:38:42;;;;;;;0.80;0.80;;;20.90;99.90;;;;;;5050535;28;20617;-67
2022/09/07 05:41:13;;;;;;;1.20;1.10;;;21.00;99.90;;;;;;5040627;28;20327;-65
2022/09/07 05:43:41;;;;;;;1.38;1.10;;;21.10;99.90;;;;;;5038671;28;20197;-66
2022/09/07 05:46:08;;;;;;;1.10;1.00;;;21.10;99.90;;;;;;5039822;28;20207;-67
2022/09/07 05:48:35;;;;;;;1.70;1.07;;;21.10;99.90;;;;;;5045941;28;20209;-67
2022/09/07 05:51:02;;;;;;;1.17;1.07;;;21.10;99.90;;;;;;5041095;28;20846;-68
2022/09/07 05:53:31;;;;;;;1.33;1.23;;;21.10;99.90;;;;;;5043755;28;20271;-67
2022/09/07 05:55:59;;;;;;;1.93;1.50;;;21.10;99.90;;;;;;5046176;28;20208;-67
2022/09/07 05:58:26;;;;;;;1.33;1.20;;;21.20;99.90;;;;;;5043687;28;20196;-67
2022/09/07 06:00:57;;;;;;;1.20;1.10;;;21.20;99.90;;;;;;5042288;28;20572;-67
2022/09/07 06:03:24;;;;;;;1.00;1.00;;;21.20;99.90;;;;;;5042844;28;20251;-67
2022/09/07 06:05:59;;;;;;;1.23;1.10;;;21.20;99.90;;;;;;5046132;28;20234;-67
2022/09/07 06:08:26;;;;;;;1.63;1.07;;;21.20;99.90;;;;;;5047586;28;20235;-66
2022/09/07 06:10:55;;;;;;;0.70;0.70;;;21.30;99.90;;;;;;5052745;28;20227;-66
2022/09/07 06:13:22;;;;;;;1.03;0.93;;;21.30;99.90;;;;;;5051294;28;20243;-66
2022/09/07 06:15:49;;;;;;;1.20;1.10;;;21.40;99.90;;;;;;5031029;28;20219;-66
2022/09/07 06:18:16;;;;;;;1.15;1.15;;;21.50;99.90;;;;;;5046381;28;20705;-67
2022/09/07 06:20:42;;;;;;;1.33;1.23;;;21.50;99.90;;;;;;5051794;28;20234;-66
2022/09/07 06:23:09;;;;;;;0.93;0.93;;;21.60;99.90;;;;;;5047861;28;20238;-67
2022/09/07 06:25:36;;;;;;;1.40;1.40;;;21.60;99.90;;;;;;5044336;28;20263;-66
2022/09/07 06:28:05;;;;;;;1.00;1.00;;;21.70;99.90;;;;;;5046460;28;20244;-67
2022/09/07 06:30:32;;;;;;;1.20;1.10;;;21.80;99.90;;;;;;5041108;28;20683;-66
2022/09/07 06:32:59;;;;;;;1.20;1.10;;;21.90;99.90;;;;;;5032847;28;20287;-65
2022/09/07 06:35:26;;;;;;;1.23;1.13;;;22.00;99.90;;;;;;5032592;28;20764;-68
2022/09/07 06:37:53;;;;;;;1.05;1.00;;;22.00;99.90;;;;;;5025554;28;20236;-67
2022/09/07 06:40:20;;;;;;;1.10;1.07;;;22.10;99.90;;;;;;5037010;28;20723;-66
2022/09/07 06:42:47;;;;;;;1.00;1.00;;;22.20;99.90;;;;;;5032983;28;20228;-68
2022/09/07 06:45:15;;;;;;;1.20;1.20;;;22.20;99.90;;;;;;5041993;28;20765;-66
2022/09/07 06:47:42;;;;;;;1.40;1.30;;;22.10;99.90;;;;;;5041656;28;20235;-67
2022/09/07 06:50:11;;;;;;;1.40;1.30;;;21.90;99.90;;;;;;5044421;28;20248;-65
2022/09/07 06:52:38;;;;;;;1.43;1.20;;;21.90;99.90;;;;;;5041191;28;20705;-67
2022/09/07 06:55:06;;;;;;;1.33;1.23;;;21.90;99.90;;;;;;5043665;28;20339;-67
2022/09/07 06:57:33;;;;;;;1.50;1.40;;;21.70;99.90;;;;;;5042811;28;20239;-64
2022/09/07 07:00:00;;;;;;;1.50;1.23;;;21.70;99.90;;;;;;5044180;28;20282;-66
2022/09/07 07:02:28;;;;;;;1.60;1.50;;;21.70;99.90;;;;;;5039070;28;20239;-66
2022/09/07 07:04:55;;;;;;;1.10;1.10;;;21.80;99.90;;;;;;5048707;28;20255;-65
2022/09/07 07:07:22;;;;;;;1.40;1.30;;;21.70;99.90;;;;;;5041373;28;20231;-67
2022/09/07 07:09:50;;;;;;;1.33;1.20;;;21.80;99.90;;;;;;5033708;28;20292;-66
2022/09/07 07:12:17;;;;;;;0.98;0.98;;;21.80;99.90;;;;;;5037577;28;20208;-66
2022/09/07 07:14:44;;;;;;;3.00;1.13;;;21.70;99.90;;;;;;5040853;28;20258;-66
2022/09/07 07:17:10;;;;;;;1.13;1.10;;;21.80;99.90;;;;;;5041459;28;20322;-64
2022/09/07 07:19:39;;;;;;;1.20;1.10;;;21.90;99.90;;;;;;5044380;28;20212;-67
2022/09/07 07:22:06;;;;;;;1.47;1.37;;;21.90;99.90;;;;;;5040797;28;20205;-67
2022/09/07 07:24:33;;;;;;;1.17;1.10;;;22.00;99.90;;;;;;5042439;28;20252;-64
2022/09/07 07:26:59;;;;;;;1.57;1.13;;;22.20;99.90;;;;;;5045416;28;20716;-66
2022/09/07 07:29:26;;;;;;;1.33;1.20;;;22.10;99.90;;;;;;5043970;28;20265;-67
2022/09/07 07:31:53;;;;;;;1.27;1.20;;;22.20;99.90;;;;;;5030582;28;20628;-67
2022/09/07 07:34:20;;;;;;;1.40;1.30;;;22.30;99.90;;;;;;5034846;28;20696;-65
2022/09/07 07:36:49;;;;;;;1.30;1.20;;;22.50;99.90;;;;;;5038471;28;20669;-66
2022/09/07 07:39:15;;;;;;;0.90;0.90;;;22.50;99.90;;;;;;5038358;28;20678;-66
2022/09/07 07:41:43;;;;;;;1.10;1.10;;;22.60;99.90;;;;;;5031547;28;20437;-66
2022/09/07 07:44:12;;;;;;;1.10;1.10;;;22.80;99.90;;;;;;5043394;28;20227;-67
2022/09/07 07:46:39;;;;;;;1.53;1.30;;;23.10;99.90;;;;;;5040395;28;20209;-66
2022/09/07 07:49:06;;;;;;;1.90;1.23;;;23.20;99.90;;;;;;5033316;28;20204;-67
2022/09/07 07:51:33;;;;;;;1.10;1.00;;;23.50;99.90;;;;;;5030023;28;20200;-65
2022/09/07 07:54:01;;;;;;;1.37;1.27;;;23.70;99.90;;;;;;5032571;28;20261;-65
2022/09/07 07:56:28;;;;;;;1.08;1.00;;;24.00;99.90;;;;;;5038181;28;20211;-66
2022/09/07 07:58:55;;;;;;;1.17;1.10;;;24.20;99.90;;;;;;5030554;28;20240;-65
2022/09/07 08:01:22;;;;;;;1.35;1.27;;;24.50;99.90;;;;;;5040470;28;20197;-66
2022/09/07 08:03:49;;;;;;;1.13;1.10;;;24.60;99.90;;;;;;5033425;28;20232;-66
2022/09/07 08:06:18;;;;;;;1.67;1.57;;;24.80;99.90;;;;;;5034035;28;20201;-66
2022/09/07 08:08:45;;;;;;;1.50;1.42;;;24.90;99.90;;;;;;5034809;28;20235;-64
2022/09/07 08:11:16;;;;;;;1.47;1.37;;;24.90;99.90;;;;;;5033239;28;20242;-66
2022/09/07 08:13:44;;;;;;;1.00;1.00;;;25.00;99.90;;;;;;5034264;28;20303;-66
2022/09/07 08:16:12;;;;;;;2.22;1.40;;;25.00;99.90;;;;;;5037649;28;20259;-68
2022/09/07 08:18:40;;;;;;;2.92;1.40;;;24.80;99.90;;;;;;5034881;28;20208;-66
2022/09/07 08:21:10;;;;;;;1.75;1.38;;;24.60;99.90;;;;;;5040190;28;20682;-67
2022/09/07 08:23:37;;;;;;;1.40;1.30;;;24.50;99.90;;;;;;5032892;28;20219;-67
2022/09/07 08:26:04;;;;;;;1.47;1.30;;;24.40;99.90;;;;;;5036077;28;20208;-65
2022/09/07 08:28:36;;;;;;;1.27;1.17;;;24.30;99.90;;;;;;5035040;28;20567;-68
2022/09/07 08:31:05;;;;;;;1.15;1.00;;;24.50;99.90;;;;;;5035014;28;20250;-66
2022/09/07 08:33:32;;;;;;;1.30;1.20;;;24.80;99.90;;;;;;5034405;28;20216;-67
2022/09/07 08:36:01;;;;;;;1.48;1.38;;;25.00;99.90;;;;;;5037338;28;20215;-67
2022/09/07 08:38:30;;;;;;;1.20;1.10;;;25.20;99.90;;;;;;5041897;28;20204;-68
2022/09/07 08:40:57;;;;;;;1.43;1.30;;;25.40;99.90;;;;;;5046277;28;20233;-65
2022/09/07 08:43:38;;;;;;;1.55;1.33;;;25.40;99.90;;;;;;5041328;28;20204;-66
2022/09/07 08:46:10;;;;;;;1.85;1.42;;;25.40;99.90;;;;;;5038413;28;20197;-67
2022/09/07 08:48:39;;;;;;;1.25;1.15;;;25.50;99.90;;;;;;5048904;28;20210;-66
2022/09/07 08:51:12;;;;;;;1.42;1.20;;;25.40;99.90;;;;;;5045008;28;20548;-69
2022/09/07 08:53:45;;;;;;;1.33;1.20;;;25.30;99.90;;;;;;5039892;28;20224;-66
2022/09/07 08:56:17;;;;;;;1.20;0.93;;;25.30;99.90;;;;;;5043311;28;20347;-68
2022/09/07 08:58:48;;;;;;;1.20;1.10;;;25.50;99.90;;;;;;5040608;28;20212;-67
2022/09/07 09:01:16;;;;;;;1.10;1.00;;;25.70;99.90;;;;;;5043404;28;20294;-67
2022/09/07 09:03:43;;;;;;;1.13;1.02;;;25.70;99.90;;;;;;5042742;28;20196;-67
2022/09/07 09:06:19;;;;;;;4.43;1.10;;;25.70;99.90;;;;;;5049669;28;20206;-66
2022/09/07 09:09:06;;;;;;;0.93;0.93;;;25.80;99.90;;;;;;5037903;28;20358;-66
2022/09/07 09:11:43;;;;;;;1.13;1.00;;;25.80;99.90;;;;;;5038494;28;20204;-68
2022/09/07 09:14:18;;;;;;;1.48;1.02;;;26.10;99.90;;;;;;5038563;28;20232;-66
2022/09/07 09:16:49;;;;;;;0.90;0.90;;;26.00;99.90;;;;;;5040589;28;20207;-66
2022/09/07 09:19:38;;;;;;;1.30;1.20;;;26.00;99.90;;;;;;5041063;28;20201;-67
2022/09/07 09:22:10;;;;;;;1.20;1.10;;;26.40;99.90;;;;;;5026375;28;20752;-66
2022/09/07 09:24:41;;;;;;;0.90;0.90;;;26.50;99.90;;;;;;5035171;28;20284;-66
2022/09/07 09:27:10;;;;;;;1.30;1.20;;;26.70;99.90;;;;;;5036117;28;20201;-66
2022/09/07 09:29:38;;;;;;;0.95;0.90;;;26.70;99.90;;;;;;5039161;28;20201;-67
2022/09/07 09:32:38;;;;;;;1.08;1.08;;;26.50;99.90;;;;;;5039226;28;20236;-68
2022/09/07 09:35:13;;;;;;;1.13;1.13;;;26.50;99.90;;;;;;5034114;28;20709;-68
2022/09/07 09:37:42;;;;;;;0.80;0.80;;;26.90;99.90;;;;;;5042481;28;20287;-67
2022/09/07 09:40:21;;;;;;;0.93;0.90;;;27.30;99.90;;;;;;5039718;28;20240;-66
2022/09/07 09:42:57;;;;;;;1.13;1.02;;;27.60;99.90;;;;;;5038585;28;20196;-67
2022/09/07 09:45:28;;;;;;;1.02;1.02;;;27.80;99.90;;;;;;5037976;28;20218;-67
2022/09/07 09:47:57;;;;;;;1.10;1.00;;;28.00;99.90;;;;;;5038390;28;20354;-67
2022/09/07 09:50:35;;;;;;;1.15;1.05;;;28.00;99.90;;;;;;5041915;28;20240;-67
2022/09/07 09:53:04;;;;;;;1.13;1.02;;;28.10;99.90;;;;;;5040779;28;20693;-67
2022/09/07 09:55:33;;;;;;;1.10;1.10;;;28.20;99.90;;;;;;5049371;28;20232;-69
2022/09/07 09:58:01;;;;;;;1.02;1.02;;;28.40;99.90;;;;;;5043388;28;20622;-67
2022/09/07 10:00:31;;;;;;;1.42;1.00;;;28.40;99.90;;;;;;5047960;28;20251;-66
2022/09/07 10:03:04;;;;;;;0.90;0.90;;;28.50;99.90;;;;;;5033067;28;20204;-66
2022/09/07 10:05:36;;;;;;;0.80;0.80;;;28.50;99.90;;;;;;5036567;28;20311;-66
2022/09/07 10:08:13;;;;;;;0.90;0.90;;;28.60;99.90;;;;;;5037887;28;20558;-68
2022/09/07 10:10:51;;;;;;;1.10;1.00;;;28.60;99.90;;;;;;5043251;28;20203;-66
2022/09/07 10:13:21;;;;;;;0.90;0.90;;;28.80;99.90;;;;;;5044664;28;20247;-68
2022/09/07 10:15:53;;;;;;;1.10;1.00;;;28.90;99.90;;;;;;5040467;28;20224;-66
2022/09/07 10:18:27;;;;;;;1.02;1.00;;;29.00;99.90;;;;;;5042186;28;20208;-69
2022/09/07 10:21:12;;;;;;;1.50;1.20;;;29.00;99.90;;;;;;5041060;28;20583;-67
2022/09/07 10:23:40;;;;;;;0.85;0.85;;;29.30;99.90;;;;;;5036318;28;20215;-68
2022/09/07 10:26:26;;;;;;;0.90;0.90;;;29.40;99.90;;;;;;5031533;28;20205;-66
2022/09/07 10:29:16;;;;;;;1.67;0.90;;;29.40;99.90;;;;;;5033843;28;20323;-67
2022/09/07 10:32:17;;;;;;;1.13;1.02;;;29.50;99.90;;;;;;5043661;28;20196;-68
2022/09/07 10:34:56;;;;;;;0.93;0.93;;;29.70;99.90;;;;;;5020129;28;20236;-68
2022/09/07 10:37:34;;;;;;;2.20;1.05;;;29.70;99.90;;;;;;5024734;28;20576;-67
2022/09/07 10:40:14;;;;;;;1.25;1.13;;;29.70;99.90;;;;;;5026921;28;20243;-66
2022/09/07 10:42:49;;;;;;;1.00;1.00;;;29.60;99.90;;;;;;5032962;28;20600;-67
2022/09/07 10:45:19;;;;;;;1.52;1.48;;;29.50;99.90;;;;;;5035913;28;20306;-68
2022/09/07 10:47:55;;;;;;;1.20;1.10;;;29.60;99.90;;;;;;5036138;28;20201;-66
2022/09/07 10:50:30;;;;;;;0.73;0.73;;;29.40;99.90;;;;;;5042498;28;20206;-67
2022/09/07 10:53:06;;;;;;;0.80;0.80;;;29.50;99.90;;;;;;5029673;28;20210;-66
2022/09/07 10:55:39;;;;;;;1.10;1.00;;;29.70;99.90;;;;;;5033663;28;20732;-67
2022/09/07 10:58:21;;;;;;;0.93;0.90;;;29.80;99.90;;;;;;5033071;28;20238;-67
2022/09/07 11:00:59;;;;;;;1.13;1.02;;;30.00;99.90;;;;;;5024672;28;20679;-69
2022/09/07 11:03:44;;;;;;;0.93;0.90;;;29.90;99.90;;;;;;5022178;28;20211;-67
2022/09/07 11:06:18;;;;;;;1.00;1.00;;;30.00;99.90;;;;;;5019739;28;20587;-66
2022/09/07 11:09:07;;;;;;;0.80;0.80;;;30.20;99.90;;;;;;5031122;28;20195;-67
2022/09/07 11:11:40;;;;;;;1.20;1.17;;;30.30;99.90;;;;;;5033414;28;20204;-65
2022/09/07 11:14:12;;;;;;;1.25;1.15;;;30.40;99.90;;;;;;5033523;28;20310;-67
2022/09/07 11:16:48;;;;;;;1.02;1.00;;;30.60;99.90;;;;;;5031169;28;20204;-65
2022/09/07 11:19:20;;;;;;;0.77;0.77;;;30.60;99.90;;;;;;5028429;28;20288;-66
2022/09/07 11:21:56;;;;;;;1.17;1.13;;;30.70;99.90;;;;;;5033164;28;20218;-68
2022/09/07 11:24:30;;;;;;;1.00;1.00;;;30.60;99.90;;;;;;5034602;28;20239;-66
2022/09/07 11:27:00;;;;;;;0.90;0.90;;;30.00;99.90;;;;;;5042447;28;20276;-67
2022/09/07 11:29:34;;;;;;;1.05;1.05;;;29.90;99.90;;;;;;5055230;28;20226;-67
2022/09/07 11:32:07;;;;;;;0.90;0.90;;;30.00;99.90;;;;;;5046666;28;20244;-67
2022/09/07 11:34:37;;;;;;;0.82;0.82;;;29.90;99.90;;;;;;5035335;28;20662;-66
2022/09/07 11:37:10;;;;;;;0.85;0.85;;;29.60;99.90;;;;;;5034513;28;20780;-66
2022/09/07 11:39:43;;;;;;;0.90;0.90;;;29.40;99.90;;;;;;5030662;28;20262;-65
2022/09/07 11:42:17;;;;;;;1.10;1.00;;;29.40;99.90;;;;;;5037199;28;20211;-67
2022/09/07 11:44:50;;;;;;;0.95;0.95;;;29.40;99.90;;;;;;5034654;28;20217;-65
2022/09/07 11:47:25;;;;;;;0.90;0.90;;;29.40;99.90;;;;;;5043284;28;20204;-67
2022/09/07 11:49:53;;;;;;;1.08;1.00;;;29.40;99.90;;;;;;5039718;28;20200;-66
2022/09/07 11:52:31;;;;;;;0.95;0.95;;;29.40;99.90;;;;;;5043546;28;20578;-67
2022/09/07 11:55:02;;;;;;;0.90;0.90;;;29.30;99.90;;;;;;5040994;28;20721;-67
2022/09/07 11:57:43;;;;;;;1.20;1.10;;;29.30;99.90;;;;;;5043207;28;20235;-66
2022/09/07 12:00:17;;;;;;;1.15;1.15;;;29.40;99.90;;;;;;5039229;28;20208;-66
2022/09/07 12:03:04;;;;;;;0.93;0.90;;;29.40;99.90;;;;;;5037696;28;20618;-67
2022/09/07 12:05:49;;;;;;;0.82;0.82;;;29.40;99.90;;;;;;5038693;28;20222;-66
2022/09/07 12:08:30;;;;;;;1.10;1.00;;;29.40;99.90;;;;;;5039497;28;20662;-68
2022/09/07 12:11:18;;;;;;;1.00;0.80;;;29.50;99.90;;;;;;5028893;28;20762;-66
2022/09/07 12:14:18;;;;;;;2.03;1.20;;;29.60;99.90;;;;;;5033638;28;20203;-67
2022/09/07 12:17:05;;;;;;;0.88;0.88;;;29.70;99.90;;;;;;5040023;28;20278;-65
2022/09/07 12:19:31;;;;;;;0.90;0.90;;;29.30;99.90;;;;;;5040352;28;20336;-68
2022/09/07 12:21:59;;;;;;;0.70;0.70;;;29.10;99.90;;;;;;5041251;28;20208;-67
2022/09/07 12:24:36;;;;;;;0.80;0.80;;;29.00;99.90;;;;;;5032195;28;20233;-67
2022/09/07 12:27:03;;;;;;;1.40;0.90;;;28.80;99.90;;;;;;5033767;28;20210;-66
2022/09/07 12:29:30;;;;;;;0.70;0.70;;;28.70;99.90;;;;;;5039054;28;20501;-65
2022/09/07 12:31:59;;;;;;;0.90;0.90;;;28.60;99.90;;;;;;5039292;28;20208;-66
2022/09/07 12:34:59;;;;;;;0.80;0.80;;;28.70;99.90;;;;;;5035678;28;20711;-65
2022/09/07 12:37:41;;;;;;;1.00;1.00;;;28.70;99.90;;;;;;5041750;28;20208;-65
2022/09/07 12:41:00;;;;;;;0.90;0.90;;;28.70;99.90;;;;;;5042372;28;20577;-66
2022/09/07 12:43:53;;;;;;;0.80;0.80;;;28.70;99.90;;;;;;5042026;28;20230;-66
2022/09/07 12:46:44;;;;;;;0.90;0.90;;;28.90;99.90;;;;;;5032447;28;20232;-67
2022/09/07 12:49:34;;;;;;;0.90;0.90;;;29.10;99.90;;;;;;5035628;28;20216;-70
2022/09/07 12:52:10;;;;;;;1.23;1.00;;;28.90;99.90;;;;;;5042759;28;20235;-67
2022/09/07 12:54:44;;;;;;;1.35;0.95;;;28.80;99.90;;;;;;5062265;23;20230;-62
2022/09/07 12:57:26;;;;;;;0.80;0.80;;;28.70;99.90;;;;;;5064228;28;20206;-63
2022/09/07 13:00:10;;;;;;;1.08;0.90;;;28.50;99.90;;;;;;5068193;28;20284;-63
2022/09/07 13:03:02;;;;;;;1.33;1.13;;;28.50;99.90;;;;;;5069682;28;20318;-61
2022/09/07 13:05:46;;;;;;;0.80;0.80;;;28.70;99.90;;;;;;5058434;28;20697;-61
2022/09/07 13:08:42;;;;;;;0.93;0.88;;;28.90;99.90;;;;;;5053530;28;20298;-62
2022/09/07 13:11:32;;;;;;;1.15;1.05;;;28.80;99.90;;;;;;5044780;28;20298;-62